Terminal Aerodrome Forecast
Issued by NWS

Home | Current Version | Previous Version | Text Only | Print | Product List | Glossary On
Versions: 1 2 3 4 5 6 7 8 9 10 11 12 13 14 15 16 17 18 19 20 21 22 23 24 25 26 27 28 29 30 31 32 33 34 35 36 37 38 39 40 41 42 43 44 45 46 47 48 49 50
319
FTUS46 KOTX 180539
TAFCOE
TAF
KCOE 180539Z 1806/1906 17010KT P6SM -RA OVC015 WS020/23040KT
     FM180900 21013KT P6SM VCSH OVC020
     FM181200 22015G21KT P6SM OVC025
     FM182300 22009KT P6SM BKN030 OVC080=

USA.gov is the U.S. government's official web portal to all federal, state and local government web resources and services.